sensor_id;sensor_type;location;lat;lon;timestamp;P1;durP1;ratioP1;P2;durP2;ratioP2
48006;SDS011;33771;48.180;11.400;2023-04-07T00:02:24;14.97;;;7.90;;
48006;SDS011;33771;48.180;11.400;2023-04-07T00:04:51;21.10;;;11.33;;
48006;SDS011;33771;48.180;11.400;2023-04-07T00:07:17;18.67;;;10.70;;
48006;SDS011;33771;48.180;11.400;2023-04-07T00:09:43;15.13;;;9.10;;
48006;SDS011;33771;48.180;11.400;2023-04-07T00:12:09;14.33;;;9.43;;
48006;SDS011;33771;48.180;11.400;2023-04-07T00:14:35;13.70;;;9.37;;
48006;SDS011;33771;48.180;11.400;2023-04-07T00:17:01;12.97;;;8.23;;
48006;SDS011;33771;48.180;11.400;2023-04-07T00:19:27;14.13;;;7.63;;
48006;SDS011;33771;48.180;11.400;2023-04-07T00:21:53;10.83;;;7.30;;
48006;SDS011;33771;48.180;11.400;2023-04-07T00:24:19;11.43;;;7.47;;
48006;SDS011;33771;48.180;11.400;2023-04-07T00:26:45;12.27;;;6.90;;
48006;SDS011;33771;48.180;11.400;2023-04-07T00:29:11;10.13;;;7.33;;
48006;SDS011;33771;48.180;11.400;2023-04-07T00:31:37;12.47;;;7.33;;
48006;SDS011;33771;48.180;11.400;2023-04-07T00:34:03;12.73;;;7.40;;
48006;SDS011;33771;48.180;11.400;2023-04-07T00:36:29;13.23;;;7.67;;
48006;SDS011;33771;48.180;11.400;2023-04-07T00:38:56;11.40;;;7.70;;
48006;SDS011;33771;48.180;11.400;2023-04-07T00:41:22;13.80;;;7.27;;
48006;SDS011;33771;48.180;11.400;2023-04-07T00:43:48;12.00;;;7.77;;
48006;SDS011;33771;48.180;11.400;2023-04-07T00:46:15;14.23;;;8.63;;
48006;SDS011;33771;48.180;11.400;2023-04-07T00:48:43;16.40;;;9.00;;
48006;SDS011;33771;48.180;11.400;2023-04-07T00:51:09;15.33;;;9.40;;
48006;SDS011;33771;48.180;11.400;2023-04-07T00:53:35;14.30;;;9.33;;
48006;SDS011;33771;48.180;11.400;2023-04-07T00:56:01;16.10;;;10.17;;
48006;SDS011;33771;48.180;11.400;2023-04-07T00:58:27;14.70;;;10.43;;
48006;SDS011;33771;48.180;11.400;2023-04-07T01:01:04;21.43;;;12.30;;
48006;SDS011;33771;48.180;11.400;2023-04-07T01:03:34;25.10;;;14.40;;
48006;SDS011;33771;48.180;11.400;2023-04-07T01:06:06;17.93;;;11.30;;
48006;SDS011;33771;48.180;11.400;2023-04-07T01:08:37;12.97;;;8.20;;
48006;SDS011;33771;48.180;11.400;2023-04-07T01:11:36;16.00;;;8.47;;
48006;SDS011;33771;48.180;11.400;2023-04-07T01:14:33;10.07;;;7.20;;
48006;SDS011;33771;48.180;11.400;2023-04-07T01:17:05;10.93;;;7.57;;
48006;SDS011;33771;48.180;11.400;2023-04-07T01:19:47;12.57;;;7.50;;
48006;SDS011;33771;48.180;11.400;2023-04-07T01:22:16;13.30;;;7.87;;
48006;SDS011;33771;48.180;11.400;2023-04-07T01:30:22;10.88;;;6.38;;
48006;SDS011;33771;48.180;11.400;2023-04-07T01:32:54;10.67;;;6.97;;
48006;SDS011;33771;48.180;11.400;2023-04-07T01:35:22;12.10;;;7.17;;
48006;SDS011;33771;48.180;11.400;2023-04-07T01:37:49;11.70;;;7.17;;
48006;SDS011;33771;48.180;11.400;2023-04-07T01:40:19;12.17;;;7.03;;
48006;SDS011;33771;48.180;11.400;2023-04-07T01:42:49;11.57;;;6.50;;
48006;SDS011;33771;48.180;11.400;2023-04-07T01:45:16;12.40;;;7.43;;
48006;SDS011;33771;48.180;11.400;2023-04-07T01:47:43;9.70;;;5.87;;
48006;SDS011;33771;48.180;11.400;2023-04-07T01:50:13;9.53;;;6.60;;
48006;SDS011;33771;48.180;11.400;2023-04-07T01:52:40;10.07;;;6.73;;
48006;SDS011;33771;48.180;11.400;2023-04-07T01:55:09;14.30;;;6.57;;
48006;SDS011;33771;48.180;11.400;2023-04-07T01:57:35;11.57;;;5.70;;
48006;SDS011;33771;48.180;11.400;2023-04-07T02:00:02;10.73;;;6.00;;
48006;SDS011;33771;48.180;11.400;2023-04-07T02:02:30;10.70;;;6.00;;
48006;SDS011;33771;48.180;11.400;2023-04-07T02:05:01;10.47;;;5.83;;
48006;SDS011;33771;48.180;11.400;2023-04-07T02:10:16;7.53;;;5.00;;
48006;SDS011;33771;48.180;11.400;2023-04-07T02:12:45;7.37;;;5.00;;
48006;SDS011;33771;48.180;11.400;2023-04-07T02:15:12;7.97;;;4.57;;
48006;SDS011;33771;48.180;11.400;2023-04-07T02:17:41;8.13;;;4.63;;
48006;SDS011;33771;48.180;11.400;2023-04-07T02:20:10;8.60;;;4.97;;
48006;SDS011;33771;48.180;11.400;2023-04-07T02:22:39;7.40;;;4.50;;
48006;SDS011;33771;48.180;11.400;2023-04-07T02:25:24;14.40;;;5.60;;
48006;SDS011;33771;48.180;11.400;2023-04-07T02:27:54;6.53;;;4.50;;
48006;SDS011;33771;48.180;11.400;2023-04-07T02:30:25;6.97;;;4.73;;
48006;SDS011;33771;48.180;11.400;2023-04-07T02:32:52;7.07;;;4.67;;
48006;SDS011;33771;48.180;11.400;2023-04-07T02:35:18;5.30;;;4.10;;
48006;SDS011;33771;48.180;11.400;2023-04-07T02:37:46;6.57;;;4.20;;
48006;SDS011;33771;48.180;11.400;2023-04-07T02:40:16;7.23;;;4.90;;
48006;SDS011;33771;48.180;11.400;2023-04-07T02:42:43;7.13;;;4.53;;
48006;SDS011;33771;48.180;11.400;2023-04-07T02:45:11;7.60;;;4.60;;
48006;SDS011;33771;48.180;11.400;2023-04-07T02:47:39;6.07;;;4.10;;
48006;SDS011;33771;48.180;11.400;2023-04-07T02:50:06;7.17;;;4.60;;
48006;SDS011;33771;48.180;11.400;2023-04-07T02:52:36;10.03;;;5.33;;
48006;SDS011;33771;48.180;11.400;2023-04-07T02:58:27;6.93;;;4.63;;
48006;SDS011;33771;48.180;11.400;2023-04-07T03:00:57;7.53;;;4.80;;
48006;SDS011;33771;48.180;11.400;2023-04-07T03:03:22;7.67;;;4.70;;
48006;SDS011;33771;48.180;11.400;2023-04-07T03:05:48;6.80;;;4.93;;
48006;SDS011;33771;48.180;11.400;2023-04-07T03:08:15;9.47;;;5.07;;
48006;SDS011;33771;48.180;11.400;2023-04-07T03:10:40;7.23;;;4.73;;
48006;SDS011;33771;48.180;11.400;2023-04-07T03:13:07;6.70;;;4.50;;
48006;SDS011;33771;48.180;11.400;2023-04-07T03:15:34;8.73;;;5.30;;
48006;SDS011;33771;48.180;11.400;2023-04-07T03:17:59;8.40;;;4.50;;
48006;SDS011;33771;48.180;11.400;2023-04-07T03:20:25;6.80;;;4.70;;
48006;SDS011;33771;48.180;11.400;2023-04-07T03:22:51;6.90;;;4.47;;
48006;SDS011;33771;48.180;11.400;2023-04-07T03:25:21;7.83;;;4.60;;
48006;SDS011;33771;48.180;11.400;2023-04-07T03:27:47;6.17;;;4.77;;
48006;SDS011;33771;48.180;11.400;2023-04-07T03:30:17;5.30;;;4.47;;
48006;SDS011;33771;48.180;11.400;2023-04-07T03:32:50;8.10;;;4.47;;
48006;SDS011;33771;48.180;11.400;2023-04-07T03:35:19;8.43;;;4.60;;
48006;SDS011;33771;48.180;11.400;2023-04-07T03:37:45;7.63;;;4.67;;
48006;SDS011;33771;48.180;11.400;2023-04-07T03:40:11;8.13;;;5.13;;
48006;SDS011;33771;48.180;11.400;2023-04-07T03:42:38;10.13;;;5.40;;
48006;SDS011;33771;48.180;11.400;2023-04-07T03:45:10;6.13;;;4.03;;
48006;SDS011;33771;48.180;11.400;2023-04-07T03:47:44;7.20;;;5.10;;
48006;SDS011;33771;48.180;11.400;2023-04-07T03:50:17;7.57;;;5.03;;
48006;SDS011;33771;48.180;11.400;2023-04-07T03:52:44;8.33;;;5.00;;
48006;SDS011;33771;48.180;11.400;2023-04-07T03:55:11;6.40;;;5.23;;
48006;SDS011;33771;48.180;11.400;2023-04-07T03:57:37;6.77;;;5.03;;
48006;SDS011;33771;48.180;11.400;2023-04-07T04:00:03;7.90;;;5.23;;
48006;SDS011;33771;48.180;11.400;2023-04-07T04:02:30;7.03;;;5.07;;
48006;SDS011;33771;48.180;11.400;2023-04-07T04:04:56;6.63;;;5.10;;
48006;SDS011;33771;48.180;11.400;2023-04-07T04:07:23;7.17;;;5.00;;
48006;SDS011;33771;48.180;11.400;2023-04-07T04:09:50;7.93;;;5.07;;
48006;SDS011;33771;48.180;11.400;2023-04-07T04:12:16;6.27;;;4.70;;
48006;SDS011;33771;48.180;11.400;2023-04-07T04:14:42;6.93;;;5.33;;
48006;SDS011;33771;48.180;11.400;2023-04-07T04:17:08;7.50;;;5.00;;
48006;SDS011;33771;48.180;11.400;2023-04-07T04:19:33;7.77;;;5.40;;
48006;SDS011;33771;48.180;11.400;2023-04-07T04:21:59;9.80;;;5.77;;
48006;SDS011;33771;48.180;11.400;2023-04-07T04:24:25;8.63;;;5.50;;
48006;SDS011;33771;48.180;11.400;2023-04-07T04:26:51;9.50;;;6.10;;
48006;SDS011;33771;48.180;11.400;2023-04-07T04:29:17;8.50;;;5.83;;
48006;SDS011;33771;48.180;11.400;2023-04-07T04:31:43;9.73;;;5.80;;
48006;SDS011;33771;48.180;11.400;2023-04-07T04:34:09;9.00;;;6.20;;
48006;SDS011;33771;48.180;11.400;2023-04-07T04:36:35;7.97;;;5.67;;
48006;SDS011;33771;48.180;11.400;2023-04-07T04:39:01;9.10;;;6.47;;
48006;SDS011;33771;48.180;11.400;2023-04-07T04:41:27;8.87;;;6.60;;
48006;SDS011;33771;48.180;11.400;2023-04-07T04:43:53;9.83;;;6.63;;
48006;SDS011;33771;48.180;11.400;2023-04-07T04:46:19;10.53;;;6.80;;
48006;SDS011;33771;48.180;11.400;2023-04-07T04:48:44;10.30;;;7.17;;
48006;SDS011;33771;48.180;11.400;2023-04-07T04:51:10;11.60;;;7.03;;
48006;SDS011;33771;48.180;11.400;2023-04-07T04:53:36;11.50;;;7.50;;
48006;SDS011;33771;48.180;11.400;2023-04-07T04:56:03;8.63;;;6.77;;
48006;SDS011;33771;48.180;11.400;2023-04-07T04:58:29;10.27;;;7.30;;
48006;SDS011;33771;48.180;11.400;2023-04-07T05:00:55;13.10;;;8.27;;
48006;SDS011;33771;48.180;11.400;2023-04-07T05:03:22;11.87;;;8.53;;
48006;SDS011;33771;48.180;11.400;2023-04-07T05:05:50;12.43;;;7.77;;
48006;SDS011;33771;48.180;11.400;2023-04-07T05:08:16;12.77;;;7.63;;
48006;SDS011;33771;48.180;11.400;2023-04-07T05:10:42;15.20;;;7.87;;
48006;SDS011;33771;48.180;11.400;2023-04-07T05:13:08;13.77;;;8.27;;
48006;SDS011;33771;48.180;11.400;2023-04-07T05:15:34;11.77;;;7.47;;
48006;SDS011;33771;48.180;11.400;2023-04-07T05:18:01;11.80;;;7.90;;
48006;SDS011;33771;48.180;11.400;2023-04-07T05:20:27;11.00;;;8.03;;
48006;SDS011;33771;48.180;11.400;2023-04-07T05:22:53;11.63;;;8.43;;
48006;SDS011;33771;48.180;11.400;2023-04-07T05:25:21;13.57;;;8.37;;
48006;SDS011;33771;48.180;11.400;2023-04-07T05:27:50;12.87;;;8.53;;
48006;SDS011;33771;48.180;11.400;2023-04-07T05:30:28;13.00;;;8.07;;
48006;SDS011;33771;48.180;11.400;2023-04-07T05:32:57;11.27;;;7.93;;
48006;SDS011;33771;48.180;11.400;2023-04-07T05:35:34;11.90;;;8.85;;
48006;SDS011;33771;48.180;11.400;2023-04-07T05:38:00;12.50;;;8.20;;
48006;SDS011;33771;48.180;11.400;2023-04-07T05:40:27;13.10;;;8.53;;
48006;SDS011;33771;48.180;11.400;2023-04-07T05:42:56;12.60;;;8.57;;
48006;SDS011;33771;48.180;11.400;2023-04-07T05:45:22;12.10;;;7.70;;
48006;SDS011;33771;48.180;11.400;2023-04-07T05:47:48;11.80;;;8.20;;
48006;SDS011;33771;48.180;11.400;2023-04-07T05:50:21;11.93;;;8.57;;
48006;SDS011;33771;48.180;11.400;2023-04-07T05:52:58;11.80;;;8.47;;
48006;SDS011;33771;48.180;11.400;2023-04-07T05:55:29;11.33;;;8.50;;
48006;SDS011;33771;48.180;11.400;2023-04-07T05:57:55;11.67;;;7.97;;
48006;SDS011;33771;48.180;11.400;2023-04-07T06:00:26;11.63;;;7.73;;
48006;SDS011;33771;48.180;11.400;2023-04-07T06:02:55;11.77;;;8.37;;
48006;SDS011;33771;48.180;11.400;2023-04-07T06:05:21;11.47;;;8.37;;
48006;SDS011;33771;48.180;11.400;2023-04-07T06:07:58;10.93;;;8.27;;
48006;SDS011;33771;48.180;11.400;2023-04-07T06:10:25;12.73;;;8.87;;
48006;SDS011;33771;48.180;11.400;2023-04-07T06:12:53;11.33;;;7.97;;
48006;SDS011;33771;48.180;11.400;2023-04-07T06:15:21;12.13;;;7.53;;
48006;SDS011;33771;48.180;11.400;2023-04-07T06:17:47;11.03;;;7.77;;
48006;SDS011;33771;48.180;11.400;2023-04-07T06:20:18;13.33;;;7.77;;
48006;SDS011;33771;48.180;11.400;2023-04-07T06:22:50;13.47;;;9.77;;
48006;SDS011;33771;48.180;11.400;2023-04-07T06:25:20;15.93;;;12.47;;
48006;SDS011;33771;48.180;11.400;2023-04-07T06:27:48;12.50;;;8.00;;
48006;SDS011;33771;48.180;11.400;2023-04-07T06:30:15;10.30;;;7.77;;
48006;SDS011;33771;48.180;11.400;2023-04-07T06:33:02;12.20;;;9.00;;
48006;SDS011;33771;48.180;11.400;2023-04-07T06:35:28;10.23;;;7.90;;
48006;SDS011;33771;48.180;11.400;2023-04-07T06:37:54;11.87;;;8.13;;
48006;SDS011;33771;48.180;11.400;2023-04-07T06:40:21;10.93;;;8.00;;
48006;SDS011;33771;48.180;11.400;2023-04-07T06:42:46;10.73;;;8.30;;
48006;SDS011;33771;48.180;11.400;2023-04-07T06:45:13;12.07;;;8.63;;
48006;SDS011;33771;48.180;11.400;2023-04-07T06:47:39;10.03;;;7.50;;
48006;SDS011;33771;48.180;11.400;2023-04-07T06:50:08;12.63;;;7.80;;
48006;SDS011;33771;48.180;11.400;2023-04-07T06:52:38;15.00;;;8.90;;
48006;SDS011;33771;48.180;11.400;2023-04-07T06:55:04;11.93;;;7.83;;
48006;SDS011;33771;48.180;11.400;2023-04-07T06:57:34;13.87;;;7.50;;
48006;SDS011;33771;48.180;11.400;2023-04-07T07:03:03;11.23;;;7.47;;
48006;SDS011;33771;48.180;11.400;2023-04-07T07:05:29;12.47;;;7.70;;
48006;SDS011;33771;48.180;11.400;2023-04-07T07:07:55;11.03;;;7.47;;
48006;SDS011;33771;48.180;11.400;2023-04-07T07:10:22;11.60;;;8.20;;
48006;SDS011;33771;48.180;11.400;2023-04-07T07:13:08;10.07;;;7.20;;
48006;SDS011;33771;48.180;11.400;2023-04-07T07:15:38;9.20;;;6.67;;
48006;SDS011;33771;48.180;11.400;2023-04-07T07:18:14;9.90;;;7.30;;
48006;SDS011;33771;48.180;11.400;2023-04-07T07:20:40;10.40;;;6.93;;
48006;SDS011;33771;48.180;11.400;2023-04-07T07:23:06;9.80;;;7.00;;
48006;SDS011;33771;48.180;11.400;2023-04-07T07:25:35;10.67;;;8.30;;
48006;SDS011;33771;48.180;11.400;2023-04-07T07:28:10;11.03;;;7.40;;
48006;SDS011;33771;48.180;11.400;2023-04-07T07:30:38;12.70;;;7.50;;
48006;SDS011;33771;48.180;11.400;2023-04-07T07:33:14;10.50;;;7.03;;
48006;SDS011;33771;48.180;11.400;2023-04-07T07:35:49;10.80;;;7.00;;
48006;SDS011;33771;48.180;11.400;2023-04-07T07:38:18;13.33;;;7.20;;
48006;SDS011;33771;48.180;11.400;2023-04-07T07:41:03;9.10;;;6.63;;
48006;SDS011;33771;48.180;11.400;2023-04-07T07:46:35;8.70;;;6.27;;
48006;SDS011;33771;48.180;11.400;2023-04-07T07:49:11;8.53;;;6.67;;
48006;SDS011;33771;48.180;11.400;2023-04-07T07:51:37;11.07;;;7.10;;
48006;SDS011;33771;48.180;11.400;2023-04-07T07:54:03;11.03;;;7.50;;
48006;SDS011;33771;48.180;11.400;2023-04-07T07:56:29;10.20;;;6.80;;
48006;SDS011;33771;48.180;11.400;2023-04-07T07:58:56;8.30;;;6.83;;
48006;SDS011;33771;48.180;11.400;2023-04-07T08:01:24;9.97;;;6.93;;
48006;SDS011;33771;48.180;11.400;2023-04-07T08:03:54;8.03;;;6.37;;
48006;SDS011;33771;48.180;11.400;2023-04-07T08:06:23;10.93;;;7.20;;
48006;SDS011;33771;48.180;11.400;2023-04-07T08:08:50;13.10;;;8.10;;
48006;SDS011;33771;48.180;11.400;2023-04-07T08:11:17;10.27;;;6.77;;
48006;SDS011;33771;48.180;11.400;2023-04-07T08:13:43;11.07;;;6.87;;
48006;SDS011;33771;48.180;11.400;2023-04-07T08:16:13;8.33;;;6.73;;
48006;SDS011;33771;48.180;11.400;2023-04-07T08:19:38;13.00;;;7.10;;
48006;SDS011;33771;48.180;11.400;2023-04-07T08:22:06;10.07;;;7.13;;
48006;SDS011;33771;48.180;11.400;2023-04-07T08:24:32;12.03;;;7.90;;
48006;SDS011;33771;48.180;11.400;2023-04-07T08:26:58;10.17;;;6.60;;
48006;SDS011;33771;48.180;11.400;2023-04-07T08:29:25;9.53;;;6.60;;
48006;SDS011;33771;48.180;11.400;2023-04-07T08:31:51;10.40;;;6.80;;
48006;SDS011;33771;48.180;11.400;2023-04-07T08:34:17;10.60;;;6.90;;
48006;SDS011;33771;48.180;11.400;2023-04-07T08:36:45;11.37;;;6.27;;
48006;SDS011;33771;48.180;11.400;2023-04-07T08:39:11;10.87;;;7.17;;
48006;SDS011;33771;48.180;11.400;2023-04-07T08:41:38;8.33;;;6.27;;
48006;SDS011;33771;48.180;11.400;2023-04-07T08:44:07;8.37;;;6.40;;
48006;SDS011;33771;48.180;11.400;2023-04-07T08:46:37;8.20;;;6.20;;
48006;SDS011;33771;48.180;11.400;2023-04-07T08:49:07;8.40;;;6.33;;
48006;SDS011;33771;48.180;11.400;2023-04-07T08:51:34;8.10;;;6.23;;
48006;SDS011;33771;48.180;11.400;2023-04-07T08:54:08;11.23;;;6.50;;
48006;SDS011;33771;48.180;11.400;2023-04-07T08:56:38;9.37;;;7.23;;
48006;SDS011;33771;48.180;11.400;2023-04-07T08:59:06;8.37;;;6.93;;
48006;SDS011;33771;48.180;11.400;2023-04-07T09:01:35;9.43;;;6.43;;
48006;SDS011;33771;48.180;11.400;2023-04-07T09:04:02;8.23;;;6.10;;
48006;SDS011;33771;48.180;11.400;2023-04-07T09:06:31;8.77;;;5.73;;
48006;SDS011;33771;48.180;11.400;2023-04-07T09:08:58;10.17;;;6.63;;
48006;SDS011;33771;48.180;11.400;2023-04-07T09:11:27;8.00;;;6.07;;
48006;SDS011;33771;48.180;11.400;2023-04-07T09:13:55;8.07;;;5.67;;
48006;SDS011;33771;48.180;11.400;2023-04-07T09:16:21;8.57;;;6.47;;
48006;SDS011;33771;48.180;11.400;2023-04-07T09:18:49;9.47;;;6.17;;
48006;SDS011;33771;48.180;11.400;2023-04-07T09:21:17;10.83;;;8.53;;
48006;SDS011;33771;48.180;11.400;2023-04-07T09:23:44;8.70;;;6.17;;
48006;SDS011;33771;48.180;11.400;2023-04-07T09:28:46;9.70;;;6.70;;
48006;SDS011;33771;48.180;11.400;2023-04-07T09:31:16;8.43;;;6.40;;
48006;SDS011;33771;48.180;11.400;2023-04-07T09:33:45;7.83;;;6.07;;
48006;SDS011;33771;48.180;11.400;2023-04-07T09:36:12;8.90;;;6.23;;
48006;SDS011;33771;48.180;11.400;2023-04-07T09:38:38;8.60;;;6.53;;
48006;SDS011;33771;48.180;11.400;2023-04-07T09:43:32;7.95;;;5.93;;
48006;SDS011;33771;48.180;11.400;2023-04-07T09:46:08;8.47;;;6.70;;
48006;SDS011;33771;48.180;11.400;2023-04-07T09:48:40;7.65;;;6.00;;
48006;SDS011;33771;48.180;11.400;2023-04-07T09:51:13;8.27;;;5.70;;
48006;SDS011;33771;48.180;11.400;2023-04-07T09:53:44;9.20;;;5.93;;
48006;SDS011;33771;48.180;11.400;2023-04-07T09:56:15;7.53;;;5.72;;
48006;SDS011;33771;48.180;11.400;2023-04-07T09:58:43;10.07;;;6.65;;
48006;SDS011;33771;48.180;11.400;2023-04-07T10:01:11;9.27;;;7.38;;
48006;SDS011;33771;48.180;11.400;2023-04-07T10:03:39;8.52;;;6.70;;
48006;SDS011;33771;48.180;11.400;2023-04-07T10:06:05;8.30;;;6.03;;
48006;SDS011;33771;48.180;11.400;2023-04-07T10:08:39;11.23;;;7.93;;
48006;SDS011;33771;48.180;11.400;2023-04-07T10:11:07;14.50;;;9.32;;
48006;SDS011;33771;48.180;11.400;2023-04-07T10:13:34;12.38;;;8.88;;
48006;SDS011;33771;48.180;11.400;2023-04-07T10:16:02;8.68;;;5.63;;
48006;SDS011;33771;48.180;11.400;2023-04-07T10:18:30;7.63;;;6.00;;
48006;SDS011;33771;48.180;11.400;2023-04-07T10:21:04;8.55;;;6.43;;
48006;SDS011;33771;48.180;11.400;2023-04-07T10:28:48;8.95;;;6.30;;
48006;SDS011;33771;48.180;11.400;2023-04-07T10:31:17;19.27;;;12.88;;
48006;SDS011;33771;48.180;11.400;2023-04-07T10:33:52;11.57;;;7.90;;
48006;SDS011;33771;48.180;11.400;2023-04-07T10:36:21;10.65;;;7.30;;
48006;SDS011;33771;48.180;11.400;2023-04-07T10:44:01;8.75;;;5.60;;
48006;SDS011;33771;48.180;11.400;2023-04-07T10:49:16;7.90;;;6.85;;
48006;SDS011;33771;48.180;11.400;2023-04-07T10:52:05;11.77;;;5.70;;
48006;SDS011;33771;48.180;11.400;2023-04-07T10:54:43;7.10;;;5.18;;
48006;SDS011;33771;48.180;11.400;2023-04-07T10:57:12;9.50;;;5.97;;
48006;SDS011;33771;48.180;11.400;2023-04-07T11:02:43;8.35;;;5.80;;
48006;SDS011;33771;48.180;11.400;2023-04-07T11:05:20;10.82;;;5.35;;
48006;SDS011;33771;48.180;11.400;2023-04-07T11:08:12;8.93;;;5.78;;
48006;SDS011;33771;48.180;11.400;2023-04-07T11:10:37;7.50;;;5.80;;
48006;SDS011;33771;48.180;11.400;2023-04-07T11:13:25;7.85;;;5.80;;
48006;SDS011;33771;48.180;11.400;2023-04-07T11:26:51;8.30;;;6.10;;
48006;SDS011;33771;48.180;11.400;2023-04-07T11:29:41;6.93;;;5.50;;
48006;SDS011;33771;48.180;11.400;2023-04-07T11:32:10;10.10;;;6.40;;
48006;SDS011;33771;48.180;11.400;2023-04-07T11:34:41;8.05;;;5.78;;
48006;SDS011;33771;48.180;11.400;2023-04-07T11:37:20;6.88;;;5.55;;
48006;SDS011;33771;48.180;11.400;2023-04-07T11:39:54;8.32;;;5.57;;
48006;SDS011;33771;48.180;11.400;2023-04-07T12:07:32;7.65;;;5.68;;
48006;SDS011;33771;48.180;11.400;2023-04-07T12:10:13;9.15;;;5.82;;
48006;SDS011;33771;48.180;11.400;2023-04-07T12:12:50;8.15;;;5.40;;
48006;SDS011;33771;48.180;11.400;2023-04-07T12:15:16;7.00;;;5.00;;
48006;SDS011;33771;48.180;11.400;2023-04-07T12:17:50;10.20;;;5.93;;
48006;SDS011;33771;48.180;11.400;2023-04-07T12:20:19;8.40;;;6.25;;
48006;SDS011;33771;48.180;11.400;2023-04-07T12:23:08;8.60;;;5.55;;
48006;SDS011;33771;48.180;11.400;2023-04-07T12:25:34;6.85;;;5.32;;
48006;SDS011;33771;48.180;11.400;2023-04-07T12:28:03;8.30;;;6.15;;
48006;SDS011;33771;48.180;11.400;2023-04-07T12:30:31;7.10;;;5.65;;
48006;SDS011;33771;48.180;11.400;2023-04-07T12:33:05;8.65;;;6.28;;
48006;SDS011;33771;48.180;11.400;2023-04-07T12:35:31;8.32;;;6.65;;
48006;SDS011;33771;48.180;11.400;2023-04-07T12:37:57;9.60;;;6.18;;
48006;SDS011;33771;48.180;11.400;2023-04-07T12:40:23;9.13;;;6.47;;
48006;SDS011;33771;48.180;11.400;2023-04-07T12:46:11;9.68;;;6.35;;
48006;SDS011;33771;48.180;11.400;2023-04-07T12:48:36;8.27;;;6.28;;
48006;SDS011;33771;48.180;11.400;2023-04-07T12:51:02;7.60;;;6.00;;
48006;SDS011;33771;48.180;11.400;2023-04-07T12:53:28;8.68;;;5.85;;
48006;SDS011;33771;48.180;11.400;2023-04-07T13:11:16;7.03;;;5.75;;
48006;SDS011;33771;48.180;11.400;2023-04-07T13:13:41;8.43;;;6.20;;
48006;SDS011;33771;48.180;11.400;2023-04-07T13:16:07;7.93;;;6.90;;
48006;SDS011;33771;48.180;11.400;2023-04-07T13:18:33;7.85;;;5.95;;
48006;SDS011;33771;48.180;11.400;2023-04-07T13:20:58;9.00;;;6.35;;
48006;SDS011;33771;48.180;11.400;2023-04-07T13:23:24;7.55;;;6.22;;
48006;SDS011;33771;48.180;11.400;2023-04-07T13:25:52;7.95;;;6.35;;
48006;SDS011;33771;48.180;11.400;2023-04-07T13:28:17;9.25;;;6.20;;
48006;SDS011;33771;48.180;11.400;2023-04-07T13:30:44;7.78;;;5.93;;
48006;SDS011;33771;48.180;11.400;2023-04-07T13:33:10;8.02;;;5.13;;
48006;SDS011;33771;48.180;11.400;2023-04-07T13:35:36;7.72;;;5.63;;
48006;SDS011;33771;48.180;11.400;2023-04-07T13:38:02;6.88;;;5.28;;
48006;SDS011;33771;48.180;11.400;2023-04-07T13:40:28;6.18;;;5.13;;
48006;SDS011;33771;48.180;11.400;2023-04-07T13:42:53;7.35;;;5.20;;
48006;SDS011;33771;48.180;11.400;2023-04-07T13:45:20;7.85;;;5.10;;
48006;SDS011;33771;48.180;11.400;2023-04-07T13:47:46;8.80;;;5.18;;
48006;SDS011;33771;48.180;11.400;2023-04-07T13:50:11;6.82;;;5.50;;
48006;SDS011;33771;48.180;11.400;2023-04-07T13:52:37;9.27;;;5.78;;
48006;SDS011;33771;48.180;11.400;2023-04-07T13:55:02;7.22;;;4.95;;
48006;SDS011;33771;48.180;11.400;2023-04-07T13:57:29;6.97;;;4.95;;
48006;SDS011;33771;48.180;11.400;2023-04-07T13:59:55;6.47;;;4.85;;
48006;SDS011;33771;48.180;11.400;2023-04-07T14:02:21;9.18;;;5.25;;
48006;SDS011;33771;48.180;11.400;2023-04-07T14:04:48;6.63;;;5.13;;
48006;SDS011;33771;48.180;11.400;2023-04-07T14:07:13;7.43;;;5.60;;
48006;SDS011;33771;48.180;11.400;2023-04-07T14:09:39;7.35;;;5.60;;
48006;SDS011;33771;48.180;11.400;2023-04-07T14:12:06;7.63;;;5.63;;
48006;SDS011;33771;48.180;11.400;2023-04-07T14:14:32;8.95;;;5.90;;
48006;SDS011;33771;48.180;11.400;2023-04-07T14:16:58;7.07;;;4.68;;
48006;SDS011;33771;48.180;11.400;2023-04-07T14:19:23;6.60;;;5.05;;
48006;SDS011;33771;48.180;11.400;2023-04-07T14:21:49;10.15;;;4.88;;
48006;SDS011;33771;48.180;11.400;2023-04-07T14:24:15;7.95;;;5.25;;
48006;SDS011;33771;48.180;11.400;2023-04-07T14:26:41;7.97;;;4.70;;
48006;SDS011;33771;48.180;11.400;2023-04-07T14:29:07;7.60;;;5.13;;
48006;SDS011;33771;48.180;11.400;2023-04-07T14:31:33;6.95;;;5.10;;
48006;SDS011;33771;48.180;11.400;2023-04-07T14:33:58;8.10;;;5.47;;
48006;SDS011;33771;48.180;11.400;2023-04-07T14:36:24;7.22;;;5.38;;
48006;SDS011;33771;48.180;11.400;2023-04-07T14:38:49;7.13;;;5.22;;
48006;SDS011;33771;48.180;11.400;2023-04-07T14:41:15;6.43;;;5.13;;
48006;SDS011;33771;48.180;11.400;2023-04-07T14:43:42;6.82;;;4.90;;
48006;SDS011;33771;48.180;11.400;2023-04-07T14:46:07;8.55;;;5.70;;
48006;SDS011;33771;48.180;11.400;2023-04-07T14:48:33;6.90;;;5.13;;
48006;SDS011;33771;48.180;11.400;2023-04-07T14:50:58;8.63;;;5.93;;
48006;SDS011;33771;48.180;11.400;2023-04-07T14:53:24;9.00;;;5.35;;
48006;SDS011;33771;48.180;11.400;2023-04-07T14:55:50;8.50;;;5.30;;
48006;SDS011;33771;48.180;11.400;2023-04-07T14:58:16;6.37;;;4.97;;
48006;SDS011;33771;48.180;11.400;2023-04-07T15:00:41;7.55;;;5.22;;
48006;SDS011;33771;48.180;11.400;2023-04-07T15:03:07;7.03;;;5.10;;
48006;SDS011;33771;48.180;11.400;2023-04-07T15:05:32;6.70;;;5.05;;
48006;SDS011;33771;48.180;11.400;2023-04-07T15:07:58;7.70;;;5.30;;
48006;SDS011;33771;48.180;11.400;2023-04-07T15:10:23;7.20;;;4.93;;
48006;SDS011;33771;48.180;11.400;2023-04-07T15:12:49;7.30;;;5.00;;
48006;SDS011;33771;48.180;11.400;2023-04-07T15:15:15;7.25;;;5.20;;
48006;SDS011;33771;48.180;11.400;2023-04-07T15:17:41;6.65;;;4.75;;
48006;SDS011;33771;48.180;11.400;2023-04-07T15:20:07;7.43;;;5.10;;
48006;SDS011;33771;48.180;11.400;2023-04-07T15:22:33;6.03;;;4.87;;
48006;SDS011;33771;48.180;11.400;2023-04-07T15:24:59;6.23;;;4.80;;
48006;SDS011;33771;48.180;11.400;2023-04-07T15:27:25;7.87;;;4.90;;
48006;SDS011;33771;48.180;11.400;2023-04-07T15:29:51;7.23;;;5.40;;
48006;SDS011;33771;48.180;11.400;2023-04-07T15:32:16;8.55;;;6.88;;
48006;SDS011;33771;48.180;11.400;2023-04-07T15:34:42;6.87;;;5.10;;
48006;SDS011;33771;48.180;11.400;2023-04-07T15:37:07;7.20;;;5.10;;
48006;SDS011;33771;48.180;11.400;2023-04-07T15:39:33;8.20;;;5.73;;
48006;SDS011;33771;48.180;11.400;2023-04-07T15:41:59;8.83;;;5.83;;
48006;SDS011;33771;48.180;11.400;2023-04-07T15:44:24;7.30;;;5.43;;
48006;SDS011;33771;48.180;11.400;2023-04-07T15:46:50;9.52;;;5.40;;
48006;SDS011;33771;48.180;11.400;2023-04-07T15:49:17;7.40;;;5.03;;
48006;SDS011;33771;48.180;11.400;2023-04-07T15:51:45;7.43;;;5.47;;
48006;SDS011;33771;48.180;11.400;2023-04-07T15:54:11;6.68;;;5.30;;
48006;SDS011;33771;48.180;11.400;2023-04-07T15:56:37;7.03;;;5.03;;
48006;SDS011;33771;48.180;11.400;2023-04-07T15:59:02;8.13;;;6.53;;
48006;SDS011;33771;48.180;11.400;2023-04-07T16:01:28;8.20;;;6.22;;
48006;SDS011;33771;48.180;11.400;2023-04-07T16:03:53;9.63;;;5.60;;
48006;SDS011;33771;48.180;11.400;2023-04-07T16:06:19;9.40;;;6.32;;
48006;SDS011;33771;48.180;11.400;2023-04-07T16:08:45;7.73;;;6.27;;
48006;SDS011;33771;48.180;11.400;2023-04-07T16:11:10;7.57;;;5.30;;